Time;durP1;ratioP1;P1;durP2;ratioP2;P2;SDS_P1;SDS_P2;PMS_P1;PMS_P2;Temp;Humidity;BMP_temperature;BMP_pressure;BME280_temperature;BME280_humidity;BME280_pressure;Samples;Min_cycle;Max_cycle;Signal;HPM_P1;HPM_P2
2022/10/24 00:00:31;;;;;;;1.80;1.03;;;17.90;99.90;;;;;;5098163;28;20439;-76
2022/10/24 00:02:59;;;;;;;1.10;0.70;;;17.90;99.90;;;;;;5111364;28;20446;-74
2022/10/24 00:05:27;;;;;;;1.50;0.70;;;18.00;99.90;;;;;;5111432;28;20490;-76
2022/10/24 00:07:54;;;;;;;2.20;0.77;;;17.80;99.90;;;;;;5110665;28;20551;-76
2022/10/24 00:10:21;;;;;;;3.20;0.83;;;17.70;1.00;;;;;;5110003;28;20498;-76
2022/10/24 00:12:48;;;;;;;3.27;0.80;;;17.50;1.00;;;;;;5110942;28;20458;-76
2022/10/24 00:15:16;;;;;;;1.30;0.60;;;17.50;1.00;;;;;;5111016;28;20455;-76
2022/10/24 00:17:42;;;;;;;1.80;0.60;;;17.40;1.00;;;;;;5110479;28;20460;-75
2022/10/24 00:20:10;;;;;;;2.70;0.93;;;17.40;1.00;;;;;;5109848;28;20459;-75
2022/10/24 00:22:39;;;;;;;1.53;0.83;;;17.20;1.00;;;;;;5111137;28;20452;-75
2022/10/24 00:25:07;;;;;;;1.17;0.80;;;17.30;1.00;;;;;;5110345;28;20448;-75
2022/10/24 00:27:35;;;;;;;1.10;0.73;;;17.20;1.00;;;;;;5111384;28;20448;-75
2022/10/24 00:30:01;;;;;;;2.43;0.63;;;17.10;1.00;;;;;;5110415;28;20467;-75
2022/10/24 00:32:29;;;;;;;3.13;0.67;;;17.10;1.00;;;;;;5103017;28;20447;-76
2022/10/24 00:34:55;;;;;;;2.57;0.70;;;17.10;1.00;;;;;;5115161;28;20452;-76
2022/10/24 00:37:22;;;;;;;4.17;1.20;;;17.00;39.80;;;;;;5114362;28;20446;-76
2022/10/24 00:39:50;;;;;;;2.90;0.90;;;16.90;99.90;;;;;;5114854;28;20462;-76
2022/10/24 00:42:17;;;;;;;0.80;0.60;;;16.90;99.90;;;;;;5111232;28;20444;-76
2022/10/24 00:44:46;;;;;;;1.47;0.70;;;16.80;99.90;;;;;;5114933;28;20507;-76
2022/10/24 00:47:16;;;;;;;5.50;1.13;;;16.80;99.90;;;;;;5114160;28;20470;-76
2022/10/24 00:49:46;;;;;;;1.10;0.70;;;16.80;99.90;;;;;;5114394;28;20490;-76
2022/10/24 00:52:15;;;;;;;4.30;1.10;;;16.70;99.90;;;;;;5113426;28;20931;-75
2022/10/24 00:54:42;;;;;;;2.33;1.00;;;16.60;1.00;;;;;;5114733;28;20453;-77
2022/10/24 00:57:16;;;;;;;3.50;0.90;;;16.60;1.00;;;;;;5114031;28;20446;-76
2022/10/24 00:59:45;;;;;;;2.77;0.90;;;16.50;1.00;;;;;;5113856;28;20954;-76
2022/10/24 01:02:12;;;;;;;1.47;0.63;;;16.50;1.00;;;;;;5113287;28;20495;-75
2022/10/24 01:04:39;;;;;;;1.10;0.70;;;16.30;99.90;;;;;;5114134;28;20463;-75
2022/10/24 01:07:16;;;;;;;0.87;0.73;;;16.30;99.90;;;;;;5113836;28;20480;-75
2022/10/24 01:10:01;;;;;;;1.90;0.77;;;16.30;1.00;;;;;;5113778;28;20478;-76
2022/10/24 01:12:38;;;;;;;1.60;0.80;;;16.20;99.90;;;;;;5114309;28;20440;-77
2022/10/24 01:15:15;;;;;;;1.90;1.00;;;16.20;92.90;;;;;;5100594;28;20444;-76
2022/10/24 01:17:48;;;;;;;1.60;1.20;;;16.20;99.90;;;;;;5113151;28;20473;-76
2022/10/24 01:20:49;;;;;;;3.13;1.37;;;16.10;99.90;;;;;;5112684;28;20978;-76
2022/10/24 01:23:58;;;;;;;1.83;0.80;;;16.10;99.90;;;;;;5068184;28;20447;-75
2022/10/24 01:26:54;;;;;;;3.87;1.37;;;16.20;99.90;;;;;;5092883;28;20448;-76
2022/10/24 01:29:35;;;;;;;1.70;0.90;;;16.20;93.60;;;;;;5110696;28;20468;-75
2022/10/24 01:32:08;;;;;;;1.43;0.80;;;16.20;99.90;;;;;;5111717;28;20483;-75
2022/10/24 01:34:44;;;;;;;2.93;0.90;;;16.10;1.00;;;;;;5108366;28;20915;-75
2022/10/24 01:37:18;;;;;;;1.67;0.97;;;16.00;1.00;;;;;;5113312;28;20447;-75
2022/10/24 01:39:48;;;;;;;4.27;1.10;;;16.10;1.00;;;;;;5113928;28;20448;-75
2022/10/24 01:42:19;;;;;;;1.97;0.97;;;16.20;99.90;;;;;;5112587;28;20443;-75
2022/10/24 01:44:51;;;;;;;1.07;1.00;;;16.10;1.00;;;;;;5113454;28;20459;-76
2022/10/24 01:47:21;;;;;;;5.63;0.83;;;16.20;99.90;;;;;;5113308;28;20618;-76
2022/10/24 01:49:53;;;;;;;3.20;1.23;;;16.20;99.90;;;;;;5113012;28;20498;-76
2022/10/24 01:52:21;;;;;;;3.00;1.40;;;16.20;99.90;;;;;;5112991;28;20446;-76
2022/10/24 01:54:48;;;;;;;5.20;1.10;;;16.20;1.00;;;;;;5113546;28;20448;-76
2022/10/24 01:57:16;;;;;;;4.20;1.03;;;16.10;99.90;;;;;;5112602;28;20450;-76
2022/10/24 01:59:46;;;;;;;2.97;0.70;;;16.20;1.00;;;;;;5106085;28;20460;-75
2022/10/24 02:02:19;;;;;;;1.93;0.87;;;16.10;99.90;;;;;;5120071;27;20447;-76
2022/10/24 02:04:51;;;;;;;1.53;0.90;;;16.00;1.00;;;;;;5117466;27;20450;-75
2022/10/24 02:07:20;;;;;;;2.60;1.30;;;16.10;99.90;;;;;;5112525;28;20640;-76
2022/10/24 02:09:53;;;;;;;1.73;0.87;;;16.10;1.00;;;;;;5112701;28;21002;-76
2022/10/24 02:12:23;;;;;;;1.70;0.83;;;16.10;99.90;;;;;;5112539;28;20440;-75
2022/10/24 02:14:53;;;;;;;0.80;0.70;;;16.10;1.00;;;;;;5112790;28;20448;-75
2022/10/24 02:17:22;;;;;;;6.17;1.40;;;16.10;1.00;;;;;;5112319;28;20458;-76
2022/10/24 02:19:49;;;;;;;2.17;1.10;;;16.10;99.90;;;;;;5113036;28;20463;-75
2022/10/24 02:22:25;;;;;;;2.30;0.87;;;16.20;99.90;;;;;;5112706;28;20513;-76
2022/10/24 02:24:55;;;;;;;2.07;0.97;;;16.30;99.90;;;;;;5112786;28;20945;-75
2022/10/24 02:27:25;;;;;;;10.50;1.50;;;16.50;99.90;;;;;;5112225;28;20456;-75
2022/10/24 02:29:58;;;;;;;2.80;0.87;;;16.50;99.90;;;;;;5108801;28;20480;-75
2022/10/24 02:32:31;;;;;;;1.00;0.80;;;16.40;1.00;;;;;;5116677;28;20452;-76
2022/10/24 02:35:00;;;;;;;4.43;1.00;;;16.20;1.00;;;;;;5116733;28;20448;-73
2022/10/24 02:37:28;;;;;;;1.87;1.50;;;16.00;99.90;;;;;;5117593;28;20450;-75
2022/10/24 02:39:57;;;;;;;3.23;0.90;;;16.00;99.90;;;;;;5121456;28;20448;-76
2022/10/24 02:42:27;;;;;;;1.67;1.13;;;16.00;99.90;;;;;;5130177;28;20440;-75
2022/10/24 02:44:54;;;;;;;2.23;0.80;;;16.00;1.00;;;;;;5130612;28;20456;-76
2022/10/24 02:47:23;;;;;;;2.50;1.47;;;16.00;1.00;;;;;;5128615;28;20527;-76
2022/10/24 02:49:52;;;;;;;1.93;0.80;;;15.80;1.00;;;;;;5127664;28;20476;-74
2022/10/24 02:52:19;;;;;;;3.53;1.20;;;15.90;99.90;;;;;;5126983;28;20448;-76
2022/10/24 02:54:46;;;;;;;2.03;1.00;;;16.00;99.90;;;;;;5126525;28;20454;-76
2022/10/24 02:57:14;;;;;;;1.90;0.80;;;15.90;1.00;;;;;;5125447;28;20440;-75
2022/10/24 02:59:41;;;;;;;2.23;1.10;;;15.90;1.00;;;;;;5124118;28;20444;-74
2022/10/24 03:02:07;;;;;;;4.27;1.07;;;15.80;17.50;;;;;;5121723;28;20456;-75
2022/10/24 03:04:34;;;;;;;2.07;1.20;;;15.80;99.90;;;;;;5119409;28;20436;-76
2022/10/24 03:07:02;;;;;;;2.43;0.97;;;15.90;1.00;;;;;;5117003;28;20852;-75
2022/10/24 03:09:29;;;;;;;4.10;1.10;;;16.10;1.00;;;;;;5113498;28;20452;-75
2022/10/24 03:11:56;;;;;;;2.63;1.00;;;16.00;1.00;;;;;;5111487;28;20450;-76
2022/10/24 03:14:23;;;;;;;3.30;1.30;;;16.00;99.90;;;;;;5111779;28;20448;-76
2022/10/24 03:16:49;;;;;;;2.23;0.90;;;16.00;99.90;;;;;;5111832;28;20557;-75
2022/10/24 03:19:16;;;;;;;2.70;0.83;;;16.00;99.90;;;;;;5111258;28;20444;-76
2022/10/24 03:21:43;;;;;;;2.73;1.00;;;16.00;99.90;;;;;;5111042;28;20486;-75
2022/10/24 03:24:11;;;;;;;2.80;1.13;;;16.00;51.60;;;;;;5111171;28;20783;-75
2022/10/24 03:26:38;;;;;;;4.30;1.40;;;16.10;28.50;;;;;;5111462;28;20443;-75
2022/10/24 03:29:05;;;;;;;1.20;0.90;;;16.10;99.90;;;;;;5110952;28;20961;-76
2022/10/24 03:31:32;;;;;;;2.00;1.23;;;16.00;1.00;;;;;;5110672;28;20480;-76
2022/10/24 03:33:59;;;;;;;4.43;1.50;;;16.10;99.90;;;;;;5110903;28;20444;-75
2022/10/24 03:36:26;;;;;;;3.20;1.13;;;16.20;99.90;;;;;;5111824;28;20474;-76
2022/10/24 03:38:53;;;;;;;1.77;1.17;;;16.20;99.90;;;;;;5111329;28;20458;-76
2022/10/24 03:41:21;;;;;;;4.80;1.27;;;16.20;92.40;;;;;;5110295;28;20515;-76
2022/10/24 03:43:48;;;;;;;5.03;1.50;;;16.30;99.90;;;;;;5111324;28;20452;-76
2022/10/24 03:46:14;;;;;;;1.60;1.00;;;16.30;99.90;;;;;;5110277;28;20451;-75
2022/10/24 03:48:41;;;;;;;2.93;0.90;;;16.50;1.00;;;;;;5107563;28;20854;-76
2022/10/24 03:51:08;;;;;;;3.47;1.10;;;16.50;99.90;;;;;;5110544;28;20850;-76
2022/10/24 03:53:35;;;;;;;6.03;1.37;;;16.50;99.90;;;;;;5110867;28;20451;-76
2022/10/24 03:56:02;;;;;;;3.60;1.57;;;16.50;1.00;;;;;;5110188;28;20448;-76
2022/10/24 03:58:30;;;;;;;3.53;1.80;;;16.50;99.90;;;;;;5111120;28;20806;-75
2022/10/24 04:00:58;;;;;;;2.20;1.20;;;16.50;99.90;;;;;;5100802;28;20923;-76
2022/10/24 04:03:25;;;;;;;3.53;1.50;;;16.40;1.00;;;;;;5111411;28;20444;-75
2022/10/24 04:05:52;;;;;;;5.37;1.70;;;16.40;99.90;;;;;;5111801;28;20940;-75
2022/10/24 04:08:19;;;;;;;4.57;1.40;;;16.40;99.90;;;;;;5114642;28;20448;-75
2022/10/24 04:10:46;;;;;;;2.80;1.77;;;16.40;99.90;;;;;;5114623;28;20479;-75
2022/10/24 04:13:12;;;;;;;1.50;0.90;;;16.40;99.90;;;;;;5114230;28;20450;-77
2022/10/24 04:15:41;;;;;;;5.20;2.23;;;16.30;1.00;;;;;;5115451;28;20452;-76
2022/10/24 04:18:08;;;;;;;1.47;1.20;;;16.20;99.90;;;;;;5114304;28;20467;-77
2022/10/24 04:20:35;;;;;;;4.30;1.73;;;16.20;1.00;;;;;;5114729;28;20508;-75
2022/10/24 04:23:02;;;;;;;2.90;1.27;;;16.20;1.00;;;;;;5111091;28;20441;-74
2022/10/24 04:25:29;;;;;;;4.30;1.50;;;16.20;1.00;;;;;;5115141;28;20444;-74
2022/10/24 04:27:57;;;;;;;2.97;1.40;;;16.20;1.00;;;;;;5114920;28;20459;-76
2022/10/24 04:30:24;;;;;;;2.27;1.80;;;16.10;99.00;;;;;;5114293;28;20563;-73
2022/10/24 04:32:52;;;;;;;3.17;1.10;;;16.00;99.90;;;;;;5115011;28;20459;-75
2022/10/24 04:35:19;;;;;;;3.57;1.30;;;16.10;99.90;;;;;;5113697;28;20954;-78
2022/10/24 04:37:45;;;;;;;4.50;1.50;;;16.10;99.90;;;;;;5114945;27;20454;-78
2022/10/24 04:40:12;;;;;;;7.20;1.40;;;16.10;99.90;;;;;;5113374;28;20454;-75
2022/10/24 04:42:39;;;;;;;2.00;0.90;;;16.20;99.90;;;;;;5101361;28;20436;-74
2022/10/24 04:45:08;;;;;;;5.63;1.30;;;16.10;99.90;;;;;;5114249;28;20510;-75
2022/10/24 04:47:35;;;;;;;6.73;2.00;;;16.30;1.00;;;;;;5115163;28;20458;-75
2022/10/24 04:50:04;;;;;;;3.47;1.43;;;16.40;99.90;;;;;;5110958;28;20474;-78
2022/10/24 04:52:30;;;;;;;2.13;1.30;;;16.40;1.00;;;;;;5114182;28;20470;-77
2022/10/24 04:54:57;;;;;;;5.17;1.87;;;16.20;1.00;;;;;;5114158;28;20448;-78
2022/10/24 04:57:24;;;;;;;3.83;1.70;;;16.20;19.50;;;;;;5112331;28;20452;-77
2022/10/24 04:59:51;;;;;;;3.30;1.50;;;16.20;1.00;;;;;;5112300;28;20472;-76
2022/10/24 05:02:18;;;;;;;3.77;1.07;;;16.30;1.00;;;;;;5113573;28;20820;-77
2022/10/24 05:04:45;;;;;;;7.33;1.03;;;16.30;1.00;;;;;;5113087;28;20802;-76
2022/10/24 05:07:13;;;;;;;2.57;1.20;;;16.30;1.00;;;;;;5113064;28;20444;-76
2022/10/24 05:09:40;;;;;;;3.37;1.47;;;16.20;1.00;;;;;;5114608;28;20444;-76
2022/10/24 05:12:06;;;;;;;2.17;1.30;;;16.10;99.90;;;;;;5113988;28;20480;-78
2022/10/24 05:14:33;;;;;;;5.50;1.70;;;16.00;1.00;;;;;;5114489;28;20444;-77
2022/10/24 05:17:00;;;;;;;4.57;2.00;;;16.00;1.00;;;;;;5113355;28;20452;-77
2022/10/24 05:19:27;;;;;;;3.23;1.10;;;16.00;1.00;;;;;;5114365;28;20475;-77
2022/10/24 05:21:54;;;;;;;1.73;1.20;;;15.90;1.00;;;;;;5114463;28;20452;-77
2022/10/24 05:24:22;;;;;;;4.73;1.43;;;16.10;99.90;;;;;;5113899;28;20443;-77
2022/10/24 05:26:49;;;;;;;6.40;1.67;;;16.20;99.90;;;;;;5113864;28;20471;-78
2022/10/24 05:29:16;;;;;;;3.57;1.80;;;16.20;99.90;;;;;;5113423;28;20444;-77
2022/10/24 05:31:42;;;;;;;2.30;1.47;;;16.40;1.00;;;;;;5113891;28;20985;-77
2022/10/24 05:34:09;;;;;;;4.30;1.53;;;16.40;1.00;;;;;;5113448;28;20448;-76
2022/10/24 05:36:36;;;;;;;3.33;1.30;;;16.50;99.90;;;;;;5113776;28;20458;-77
2022/10/24 05:39:03;;;;;;;3.33;1.43;;;16.60;99.90;;;;;;5113339;28;20448;-76
2022/10/24 05:41:31;;;;;;;3.87;1.30;;;16.70;1.00;;;;;;5113768;28;20463;-76
2022/10/24 05:43:59;;;;;;;3.30;1.10;;;16.90;1.00;;;;;;5113828;28;20447;-73
2022/10/24 05:46:26;;;;;;;6.27;1.50;;;16.90;99.90;;;;;;5113745;28;20453;-77
2022/10/24 05:48:53;;;;;;;2.70;1.20;;;16.90;99.90;;;;;;5113345;28;20919;-76
2022/10/24 05:51:19;;;;;;;4.73;1.10;;;17.00;55.50;;;;;;5113267;28;20787;-76
2022/10/24 05:53:46;;;;;;;2.23;1.13;;;17.00;95.10;;;;;;5113712;28;20448;-77
2022/10/24 05:56:13;;;;;;;2.40;1.00;;;17.10;3.80;;;;;;5113269;28;20443;-77
2022/10/24 05:58:41;;;;;;;1.27;1.00;;;17.10;1.00;;;;;;5113186;28;20468;-77
2022/10/24 06:01:08;;;;;;;3.60;1.20;;;17.10;1.00;;;;;;5112774;28;20460;-76
2022/10/24 06:03:35;;;;;;;2.27;1.03;;;17.10;1.00;;;;;;5113407;28;20785;-72
2022/10/24 06:06:04;;;;;;;1.83;1.10;;;17.00;99.90;;;;;;5112862;28;20450;-69
2022/10/24 06:08:31;;;;;;;1.73;1.10;;;15.10;99.90;;;;;;5113017;28;20451;-71
2022/10/24 06:10:58;;;;;;;2.20;1.43;;;14.40;99.90;;;;;;5113310;28;20809;-71
2022/10/24 06:13:26;;;;;;;2.40;1.43;;;14.10;99.90;;;;;;5113271;28;20969;-71
2022/10/24 06:15:54;;;;;;;5.80;1.93;;;14.30;99.90;;;;;;5113453;28;20816;-71
2022/10/24 06:18:21;;;;;;;4.33;2.00;;;14.50;99.90;;;;;;5112206;28;20444;-71
2022/10/24 06:20:48;;;;;;;3.17;1.27;;;14.30;99.90;;;;;;5113184;28;20553;-71
2022/10/24 06:23:15;;;;;;;2.90;2.13;;;14.30;99.90;;;;;;5112578;28;20448;-72
2022/10/24 06:25:42;;;;;;;4.33;1.40;;;14.40;99.90;;;;;;5112606;28;20448;-71
2022/10/24 06:28:11;;;;;;;3.33;2.10;;;14.30;99.90;;;;;;5111216;28;20942;-72
2022/10/24 06:30:40;;;;;;;3.80;1.43;;;14.40;99.90;;;;;;5112373;28;20483;-72
2022/10/24 06:33:08;;;;;;;2.53;1.27;;;14.50;99.90;;;;;;5112432;28;20454;-72
2022/10/24 06:35:34;;;;;;;2.50;1.40;;;14.60;99.90;;;;;;5112269;28;20950;-72
2022/10/24 06:38:01;;;;;;;8.63;1.87;;;14.60;99.90;;;;;;5111886;28;20444;-72
2022/10/24 06:40:28;;;;;;;3.80;2.00;;;14.60;99.90;;;;;;5112789;28;20448;-72
2022/10/24 06:42:56;;;;;;;3.93;1.60;;;14.60;99.90;;;;;;5112723;28;20923;-72
2022/10/24 06:45:23;;;;;;;3.30;1.20;;;14.50;99.90;;;;;;5112335;28;20456;-72
2022/10/24 06:47:50;;;;;;;2.50;1.60;;;14.50;99.90;;;;;;5112299;28;20451;-72
2022/10/24 06:50:18;;;;;;;4.87;2.67;;;14.40;99.90;;;;;;5111872;28;20503;-72
2022/10/24 06:52:45;;;;;;;3.53;1.50;;;14.40;99.90;;;;;;5112496;28;20490;-72
2022/10/24 06:55:11;;;;;;;4.73;1.87;;;14.60;99.90;;;;;;5111756;28;20448;-72
2022/10/24 06:57:38;;;;;;;3.90;2.07;;;14.60;99.90;;;;;;5112150;28;20439;-72
2022/10/24 07:00:07;;;;;;;2.70;1.77;;;14.60;99.90;;;;;;5111460;28;20911;-72
2022/10/24 07:02:34;;;;;;;5.73;2.17;;;14.60;99.90;;;;;;5112156;28;20458;-72
2022/10/24 07:05:01;;;;;;;5.00;1.73;;;14.50;99.90;;;;;;5111671;28;20444;-71
2022/10/24 07:07:29;;;;;;;2.83;1.77;;;14.50;99.90;;;;;;5111770;28;20458;-72
2022/10/24 07:09:58;;;;;;;6.60;1.80;;;;;;;;;;5112340;28;20534;-72
2022/10/24 07:12:25;;;;;;;5.90;2.30;;;14.60;99.90;;;;;;5112252;28;20824;-71
2022/10/24 07:14:53;;;;;;;4.10;2.40;;;;;;;;;;5111997;28;20805;-72
2022/10/24 07:17:20;;;;;;;4.47;1.60;;;;;;;;;;5111403;28;20918;-72
2022/10/24 07:19:52;;;;;;;2.80;1.40;;;;;;;;;;5111704;28;20947;-72
2022/10/24 07:22:19;;;;;;;2.40;1.50;;;;;;;;;;5111838;28;20477;-71
2022/10/24 07:24:52;;;;;;;2.67;2.07;;;;;;;;;;5111953;28;20444;-71
2022/10/24 07:27:19;;;;;;;6.40;1.80;;;;;;;;;;5110716;28;20479;-72
2022/10/24 07:29:46;;;;;;;4.40;1.73;;;;;;;;;;5112060;28;20443;-71
2022/10/24 07:32:14;;;;;;;1.53;1.07;;;;;;;;;;5111338;28;20482;-71
2022/10/24 07:34:41;;;;;;;6.70;2.40;;;;;;;;;;5111901;28;20800;-71
2022/10/24 07:37:08;;;;;;;7.60;1.90;;;;;;;;;;5110658;28;20452;-71
2022/10/24 07:39:36;;;;;;;9.50;1.57;;;;;;;;;;5111834;28;20449;-71
2022/10/24 07:42:04;;;;;;;6.20;2.03;;;;;;;;;;5111298;28;20524;-72
2022/10/24 07:44:32;;;;;;;4.13;1.60;;;;;;;;;;5111890;28;20451;-72
2022/10/24 07:46:59;;;;;;;2.93;1.43;;;;;;;;;;5110516;28;20463;-70
2022/10/24 07:49:27;;;;;;;4.03;1.77;;;;;;;;;;5111761;28;20475;-72
2022/10/24 07:51:54;;;;;;;6.90;2.33;;;;;;;;;;5111361;28;20492;-72
2022/10/24 07:54:21;;;;;;;2.87;1.30;;;;;;;;;;5111369;28;20799;-73
2022/10/24 07:56:48;;;;;;;4.03;2.70;;;;;;;;;;5110871;28;20567;-72
2022/10/24 07:59:16;;;;;;;3.57;1.80;;;;;;;;;;5111249;28;20806;-72
2022/10/24 08:01:43;;;;;;;3.10;1.80;;;14.80;99.90;;;;;;5111590;28;20450;-72
2022/10/24 08:04:10;;;;;;;4.60;1.50;;;14.70;99.90;;;;;;5110707;28;20444;-72
2022/10/24 08:06:37;;;;;;;9.77;1.80;;;14.80;99.90;;;;;;5110817;28;20452;-72
2022/10/24 08:09:04;;;;;;;2.90;1.50;;;14.70;99.90;;;;;;5111280;28;20448;-72
2022/10/24 08:11:31;;;;;;;2.47;1.80;;;14.70;99.90;;;;;;5111509;28;20487;-72
2022/10/24 08:14:01;;;;;;;3.00;1.83;;;14.70;99.90;;;;;;5111552;28;20444;-70
2022/10/24 08:16:29;;;;;;;2.50;1.80;;;14.70;99.90;;;;;;5111379;28;20451;-72
2022/10/24 08:18:58;;;;;;;2.80;1.10;;;14.70;99.90;;;;;;5111639;28;20447;-72
2022/10/24 08:21:25;;;;;;;2.30;1.17;;;14.60;99.90;;;;;;5111673;28;20452;-72
2022/10/24 08:23:54;;;;;;;1.93;1.30;;;14.70;99.90;;;;;;5111536;28;20444;-71
2022/10/24 08:26:23;;;;;;;3.17;1.20;;;14.70;99.90;;;;;;5110767;28;20448;-72
2022/10/24 08:28:50;;;;;;;3.83;1.17;;;14.70;99.90;;;;;;5112034;28;20452;-72
2022/10/24 08:31:19;;;;;;;2.80;1.50;;;14.70;99.90;;;;;;5113755;28;20476;-72
2022/10/24 08:33:48;;;;;;;2.80;1.30;;;14.70;99.90;;;;;;5117381;28;20451;-72
2022/10/24 08:36:19;;;;;;;4.77;1.50;;;14.70;99.90;;;;;;5116724;28;20949;-72
2022/10/24 08:38:45;;;;;;;6.97;1.90;;;14.80;99.90;;;;;;5121560;28;20455;-72
2022/10/24 08:41:17;;;;;;;2.17;1.10;;;14.80;99.90;;;;;;5126760;28;20515;-72
2022/10/24 08:43:44;;;;;;;2.30;1.30;;;14.90;99.90;;;;;;5128513;28;20512;-72
2022/10/24 08:46:23;;;;;;;1.50;0.83;;;14.90;99.90;;;;;;5128731;28;20455;-72
2022/10/24 08:48:57;;;;;;;2.63;1.23;;;14.90;99.90;;;;;;5129118;28;20473;-72
2022/10/24 08:51:29;;;;;;;4.30;1.53;;;15.00;99.90;;;;;;5132042;28;20507;-72
2022/10/24 08:53:58;;;;;;;1.70;1.00;;;14.90;99.90;;;;;;5136183;28;20419;-72
2022/10/24 08:56:28;;;;;;;2.30;1.60;;;14.90;99.90;;;;;;5119511;28;20456;-72
2022/10/24 08:58:57;;;;;;;2.57;1.43;;;15.00;99.90;;;;;;5116892;28;20437;-72
2022/10/24 09:01:31;;;;;;;3.57;1.50;;;15.10;99.90;;;;;;5116341;28;20806;-72
2022/10/24 09:04:04;;;;;;;1.63;0.97;;;15.10;99.90;;;;;;5116877;28;20448;-70
2022/10/24 09:06:32;;;;;;;5.93;1.57;;;15.10;99.90;;;;;;5119137;28;20439;-72
2022/10/24 09:09:01;;;;;;;4.93;1.60;;;15.20;99.90;;;;;;5118818;28;20443;-72
2022/10/24 09:11:36;;;;;;;2.00;1.30;;;15.30;99.90;;;;;;5119708;28;20454;-71
2022/10/24 09:14:12;;;;;;;5.10;1.20;;;15.40;99.90;;;;;;5120249;28;20443;-72
2022/10/24 09:16:41;;;;;;;1.80;1.50;;;15.50;99.90;;;;;;5121865;28;20455;-72
2022/10/24 09:19:14;;;;;;;2.90;1.30;;;15.50;99.90;;;;;;5120081;28;20444;-71
2022/10/24 09:21:43;;;;;;;5.33;1.83;;;15.50;99.90;;;;;;5114260;28;20448;-72
2022/10/24 09:24:24;;;;;;;1.23;1.13;;;15.50;99.90;;;;;;5113494;28;20443;-72
2022/10/24 09:26:51;;;;;;;6.67;2.20;;;15.40;99.90;;;;;;5113613;28;20901;-73
2022/10/24 09:29:17;;;;;;;3.93;1.00;;;15.50;99.90;;;;;;5112831;28;20448;-73
2022/10/24 09:31:48;;;;;;;1.93;1.60;;;15.50;99.90;;;;;;5113629;28;20931;-73
2022/10/24 09:34:16;;;;;;;2.60;1.20;;;15.40;99.90;;;;;;5113127;28;20902;-73
2022/10/24 09:36:44;;;;;;;3.73;1.53;;;15.50;99.90;;;;;;5113264;28;20452;-73
2022/10/24 09:39:27;;;;;;;5.10;1.40;;;15.40;99.90;;;;;;5113142;28;20450;-72
2022/10/24 09:41:54;;;;;;;1.90;1.00;;;15.40;99.90;;;;;;5113878;28;20444;-72
2022/10/24 09:44:31;;;;;;;3.33;1.77;;;15.40;99.90;;;;;;5112911;28;20954;-72
2022/10/24 09:46:58;;;;;;;2.03;1.10;;;15.40;99.90;;;;;;5112917;28;20455;-70
2022/10/24 09:49:33;;;;;;;4.93;1.30;;;15.40;99.90;;;;;;5114836;28;20480;-71
2022/10/24 09:52:02;;;;;;;2.97;1.10;;;;;;;;;;5114408;28;20474;-71
2022/10/24 09:54:31;;;;;;;3.50;1.10;;;;;;;;;;5115314;28;20978;-72
2022/10/24 09:56:59;;;;;;;3.73;0.90;;;;;;;;;;5113104;28;20455;-70
2022/10/24 09:59:35;;;;;;;2.60;1.33;;;;;;;;;;5113386;28;20967;-72
2022/10/24 10:02:17;;;;;;;1.63;1.50;;;;;;;;;;5112702;28;20463;-72
2022/10/24 10:04:46;;;;;;;5.40;1.50;;;;;;;;;;5111889;28;20501;-72
2022/10/24 10:07:15;;;;;;;1.60;1.10;;;;;;;;;;5112529;28;20448;-72
2022/10/24 10:09:48;;;;;;;2.40;1.30;;;;;;;;;;5113373;28;20459;-72
2022/10/24 10:12:25;;;;;;;2.70;1.23;;;;;;;;;;5112644;28;20471;-72
2022/10/24 10:14:52;;;;;;;2.00;1.30;;;;;;;;;;5113202;28;20444;-72
2022/10/24 10:17:22;;;;;;;2.40;1.30;;;;;;;;;;5112368;28;20459;-72
2022/10/24 10:19:51;;;;;;;1.43;1.10;;;;;;;;;;5112938;28;20454;-72
2022/10/24 10:22:24;;;;;;;2.60;1.60;;;;;;;;;;5112696;28;20818;-72
2022/10/24 10:24:51;;;;;;;2.83;1.60;;;;;;;;;;5112834;28;20452;-72
2022/10/24 10:27:24;;;;;;;1.80;1.00;;;;;;;;;;5111959;28;20656;-72
2022/10/24 10:30:07;;;;;;;3.20;1.40;;;;;;;;;;5112966;28;20432;-72
2022/10/24 10:32:38;;;;;;;5.37;1.87;;;;;;;;;;5113055;28;20478;-72
2022/10/24 10:35:11;;;;;;;2.63;1.17;;;;;;;;;;5112364;28;20446;-72
2022/10/24 10:37:43;;;;;;;3.03;1.47;;;;;;;;;;5112670;28;20785;-72
2022/10/24 10:40:16;;;;;;;3.20;1.43;;;;;;;;;;5112045;28;20440;-72
2022/10/24 10:42:46;;;;;;;3.10;1.30;;;;;;;;;;5112531;28;20953;-72
2022/10/24 10:45:20;;;;;;;3.20;1.33;;;;;;;;;;5112180;28;20970;-72
2022/10/24 10:47:52;;;;;;;2.33;1.10;;;;;;;;;;5112427;28;20459;-72
2022/10/24 10:50:25;;;;;;;4.77;1.67;;;;;;;;;;5111623;28;20479;-72
2022/10/24 10:52:55;;;;;;;2.23;1.30;;;;;;;;;;5112313;28;20474;-72
2022/10/24 10:55:27;;;;;;;4.00;0.97;;;;;;;;;;5111946;28;20460;-73
2022/10/24 10:57:58;;;;;;;4.97;1.60;;;;;;;;;;5112434;28;20440;-73
2022/10/24 11:00:31;;;;;;;1.57;1.07;;;;;;;;;;5112413;28;20454;-73
2022/10/24 11:03:12;;;;;;;2.07;0.90;;;;;;;;;;5112933;28;20793;-72
2022/10/24 11:05:48;;;;;;;2.90;0.93;;;;;;;;;;5112175;28;20463;-72
2022/10/24 11:08:21;;;;;;;4.50;0.93;;;;;;;;;;5111798;28;20480;-73
2022/10/24 11:10:51;;;;;;;1.00;0.60;;;;;;;;;;5112279;28;20444;-73
2022/10/24 11:13:21;;;;;;;1.50;1.03;;;;;;;;;;5111220;28;21500;-73
2022/10/24 11:15:49;;;;;;;3.03;1.00;;;;;;;;;;5111026;28;20455;-73
2022/10/24 11:18:21;;;;;;;3.17;1.13;;;;;;;;;;5111415;28;20451;-73
2022/10/24 11:20:52;;;;;;;2.07;0.80;;;;;;;;;;5111629;28;20459;-73
2022/10/24 11:23:22;;;;;;;3.90;1.07;;;;;;;;;;5111223;28;20986;-73
2022/10/24 11:25:52;;;;;;;1.93;0.70;;;;;;;;;;5111428;28;20448;-73
2022/10/24 11:28:22;;;;;;;1.10;0.80;;;;;;;;;;5111039;28;20448;-73
2022/10/24 11:30:51;;;;;;;2.17;0.90;;;;;;;;;;5111893;28;20455;-73
2022/10/24 11:33:20;;;;;;;0.90;0.70;;;;;;;;;;5111053;28;20720;-73
2022/10/24 11:36:01;;;;;;;2.20;0.80;;;;;;;;;;5111473;28;20546;-73
2022/10/24 11:38:28;;;;;;;0.90;0.63;;;;;;;;;;5111937;28;20907;-73
2022/10/24 11:40:57;;;;;;;2.50;0.77;;;;;;;;;;5111961;28;20945;-73
2022/10/24 11:43:27;;;;;;;4.57;1.37;;;;;;;;;;5112124;28;20444;-73
2022/10/24 11:45:57;;;;;;;1.40;0.77;;;;;;;;;;5111282;28;20462;-74
2022/10/24 11:48:27;;;;;;;1.47;0.90;;;;;;;;;;5111594;28;20480;-74
2022/10/24 11:50:56;;;;;;;3.43;0.70;;;;;;;;;;5111494;28;20444;-74
2022/10/24 11:53:45;;;;;;;1.43;0.87;;;;;;;;;;5111813;28;20508;-74
2022/10/24 11:56:16;;;;;;;5.03;1.00;;;;;;;;;;5110899;28;20915;-74
2022/10/24 11:58:48;;;;;;;1.80;0.80;;;;;;;;;;5111633;28;20911;-75
2022/10/24 12:01:28;;;;;;;2.93;0.80;;;;;;;;;;5110984;28;20456;-75
2022/10/24 12:04:05;;;;;;;3.67;1.20;;;;;;;;;;5111842;28;20539;-75
2022/10/24 12:06:42;;;;;;;1.80;1.00;;;;;;;;;;5110894;28;21022;-75
2022/10/24 12:09:19;;;;;;;1.23;0.97;;;;;;;;;;5110845;28;20440;-75
2022/10/24 12:11:53;;;;;;;1.27;0.63;;;;;;;;;;5111622;28;20443;-75
2022/10/24 12:14:32;;;;;;;0.83;0.50;;;;;;;;;;5111026;28;20471;-75
2022/10/24 12:17:12;;;;;;;2.67;0.93;;;;;;;;;;5110746;28;20455;-73
2022/10/24 12:19:40;;;;;;;0.90;0.60;;;;;;;;;;5111271;28;20435;-75
2022/10/24 12:22:07;;;;;;;2.13;1.10;;;;;;;;;;5110852;28;20452;-75
2022/10/24 12:24:37;;;;;;;1.23;0.60;;;;;;;;;;5111144;28;20517;-75
2022/10/24 12:27:05;;;;;;;3.80;0.70;;;;;;;;;;5111724;28;20444;-75
2022/10/24 12:29:33;;;;;;;2.40;0.80;;;;;;;;;;5115152;28;20448;-76
2022/10/24 12:32:20;;;;;;;2.50;1.00;;;;;;;;;;5114346;28;20440;-75
2022/10/24 12:34:57;;;;;;;2.10;1.00;;;;;;;;;;5114998;28;20558;-76
2022/10/24 12:37:32;;;;;;;1.97;0.80;;;;;;;;;;5114821;28;20428;-76
2022/10/24 12:40:00;;;;;;;1.67;0.77;;;;;;;;;;5114620;28;20452;-73
2022/10/24 12:42:42;;;;;;;1.13;0.80;;;;;;;;;;5115088;28;20475;-76
2022/10/24 12:45:28;;;;;;;0.90;0.67;;;;;;;;;;5097540;28;20451;-76
2022/10/24 12:48:11;;;;;;;1.00;0.60;;;;;;;;;;5114722;28;20440;-75
2022/10/24 12:51:02;;;;;;;2.10;0.70;;;;;;;;;;5098168;28;20459;-75
2022/10/24 12:53:31;;;;;;;1.00;0.60;;;;;;;;;;5114821;28;20962;-75
2022/10/24 12:56:09;;;;;;;0.90;0.50;;;;;;;;;;5113903;28;20598;-75
2022/10/24 12:58:36;;;;;;;1.83;0.90;;;;;;;;;;5114994;28;20440;-75
2022/10/24 13:01:05;;;;;;;1.63;0.70;;;;;;;;;;5114125;28;20443;-75
2022/10/24 13:03:40;;;;;;;1.90;0.80;;;;;;;;;;5114373;28;20954;-75
2022/10/24 13:06:13;;;;;;;1.27;0.50;;;15.30;99.90;;;;;;5113480;28;20442;-75
2022/10/24 13:08:58;;;;;;;1.27;0.60;;;17.70;99.90;;;;;;5114360;28;20942;-75
2022/10/24 13:11:40;;;;;;;1.40;0.97;;;17.70;99.90;;;;;;5114432;28;20527;-76
2022/10/24 13:14:27;;;;;;;1.70;0.77;;;17.80;99.90;;;;;;5113520;28;20468;-75
2022/10/24 13:17:02;;;;;;;1.00;0.60;;;17.90;1.00;;;;;;5113769;28;20459;-76
2022/10/24 13:19:30;;;;;;;2.00;0.70;;;17.80;1.00;;;;;;5113543;28;20692;-76
2022/10/24 13:21:58;;;;;;;3.13;1.03;;;17.90;99.90;;;;;;5108393;28;20452;-75
2022/10/24 13:24:33;;;;;;;1.47;0.80;;;18.00;1.00;;;;;;5099449;28;20532;-76
2022/10/24 13:27:25;;;;;;;1.43;0.80;;;17.80;99.90;;;;;;5108685;28;20563;-75
2022/10/24 13:30:31;;;;;;;1.20;0.50;;;17.80;97.60;;;;;;5109791;28;20448;-78
2022/10/24 13:33:39;;;;;;;2.50;0.70;;;17.80;99.90;;;;;;5110232;28;20432;-75
2022/10/24 13:36:16;;;;;;;0.90;0.70;;;17.70;1.00;;;;;;5111741;28;20441;-78